Time;durP1;ratioP1;P1;durP2;ratioP2;P2;SDS_P1;SDS_P2;PMS_P1;PMS_P2;Temp;Humidity;BMP_temperature;BMP_pressure;BME280_temperature;BME280_humidity;BME280_pressure;Samples;Min_cycle;Max_cycle;Signal;HPM_P1;HPM_P2
2023/11/30 00:00:51;;;;;;;6.67;2.87;;;;;;;-141.23;100.00;62281.09;5101244;27;20450;-71
2023/11/30 00:03:17;;;;;;;7.37;3.43;;;;;;;-141.23;100.00;62281.09;5118333;27;20389;-70
2023/11/30 00:05:42;;;;;;;11.17;4.13;;;;;;;-141.23;100.00;62281.09;5101170;27;20042;-70
2023/11/30 00:08:08;;;;;;;7.80;3.73;;;;;;;-141.23;100.00;62281.09;5101419;27;20471;-71
2023/11/30 00:10:34;;;;;;;5.53;3.07;;;;;;;-141.23;100.00;62281.09;5118253;27;20046;-70
2023/11/30 00:13:00;;;;;;;3.73;2.10;;;;;;;-141.23;100.00;62281.09;5101109;27;20039;-70
2023/11/30 00:15:26;;;;;;;3.03;2.00;;;;;;;-141.23;100.00;62281.09;5101101;27;20501;-70
2023/11/30 00:17:52;;;;;;;10.77;4.63;;;;;;;-141.23;100.00;62281.09;5117829;27;20103;-71
2023/11/30 00:20:18;;;;;;;10.73;4.73;;;;;;;-141.23;100.00;62281.09;5100934;27;20138;-71
2023/11/30 00:22:44;;;;;;;6.73;3.53;;;;;;;-141.23;100.00;62281.09;5117900;27;20049;-71
2023/11/30 00:25:10;;;;;;;7.43;3.50;;;;;;;-141.23;100.00;62281.09;5100961;27;20039;-71
2023/11/30 00:27:36;;;;;;;15.30;6.97;;;;;;;-141.23;100.00;62281.09;5100918;27;20473;-71
2023/11/30 00:30:02;;;;;;;3.30;1.97;;;;;;;-141.23;100.00;62281.09;5134812;27;20157;-71
2023/11/30 00:32:32;;;;;;;13.05;5.35;;;;;;;-141.23;100.00;62281.09;5102503;27;20496;-70
2023/11/30 00:34:57;;;;;;;8.77;3.80;;;;;;;-141.23;100.00;62281.09;5117819;27;20039;-70
2023/11/30 00:37:23;;;;;;;12.23;4.83;;;;;;;-141.23;100.00;62281.09;5116719;27;20046;-70
2023/11/30 00:39:49;;;;;;;9.40;3.93;;;;;;;-141.23;100.00;62281.09;5099998;27;20466;-70
2023/11/30 00:42:15;;;;;;;7.60;3.50;;;;;;;-141.23;100.00;62281.09;5083099;27;20061;-70
2023/11/30 00:44:41;;;;;;;6.07;2.60;;;;;;;-141.23;100.00;62281.09;5083494;27;20137;-70
2023/11/30 00:47:07;;;;;;;7.50;3.27;;;;;;;-141.23;100.00;62281.09;5099746;27;20458;-71
2023/11/30 00:49:33;;;;;;;11.27;3.47;;;;;;;-141.23;100.00;62281.09;5099695;27;20475;-70
2023/11/30 00:51:59;;;;;;;8.70;3.67;;;;;;;-141.23;100.00;62281.09;5099664;27;20054;-70
2023/11/30 00:54:25;;;;;;;6.90;2.90;;;;;;;-141.23;100.00;62281.09;5099972;27;20034;-70
2023/11/30 00:56:52;;;;;;;12.90;4.23;;;;;;;-141.23;100.00;62281.09;5099502;27;20046;-70
2023/11/30 00:59:18;;;;;;;19.07;7.40;;;;;;;-141.23;100.00;62281.09;5099649;27;20045;-70
2023/11/30 01:01:44;;;;;;;7.60;3.70;;;;;;;-141.23;100.00;62281.09;5083139;27;20074;-70
2023/11/30 01:04:09;;;;;;;4.37;2.13;;;;;;;-141.23;100.00;62281.09;5112981;28;20074;-70
2023/11/30 01:06:36;;;;;;;12.70;5.07;;;;;;;-141.23;100.00;62281.09;5096775;28;20093;-70
2023/11/30 01:09:03;;;;;;;13.17;5.50;;;;;;;-141.23;100.00;62281.09;5092682;28;20043;-70
2023/11/30 01:11:29;;;;;;;13.10;4.80;;;;;;;-141.23;100.00;62281.09;5097188;28;20459;-74
2023/11/30 01:13:55;;;;;;;11.23;4.10;;;;;;;-141.23;100.00;62281.09;5075849;28;20142;-73
2023/11/30 01:16:21;;;;;;;3.43;2.43;;;;;;;-141.23;100.00;62281.09;5060287;28;20138;-73
2023/11/30 01:18:46;;;;;;;2.63;2.20;;;;;;;-141.23;100.00;62281.09;5063242;28;20055;-73
2023/11/30 01:21:12;;;;;;;9.57;4.47;;;;;;;-141.23;100.00;62281.09;5063786;28;20122;-70
2023/11/30 01:23:38;;;;;;;11.67;4.87;;;;;;;-141.23;100.00;62281.09;5082705;27;20157;-71
2023/11/30 01:26:05;;;;;;;12.87;4.57;;;;;;;-141.23;100.00;62281.09;5066057;27;20050;-71
2023/11/30 01:28:30;;;;;;;10.80;4.60;;;;;;;-141.23;100.00;62281.09;5065806;27;20050;-71
2023/11/30 01:30:57;;;;;;;5.13;2.83;;;;;;;-141.23;100.00;62281.09;5082757;27;20336;-71
2023/11/30 01:33:22;;;;;;;9.73;4.90;;;;;;;-141.23;100.00;62281.09;5082622;27;20050;-71
2023/11/30 01:35:49;;;;;;;8.13;4.03;;;;;;;-141.23;100.00;62281.09;5066067;27;20173;-71
2023/11/30 01:38:15;;;;;;;8.77;4.53;;;;;;;-141.23;100.00;62281.09;5065990;27;20082;-72
2023/11/30 01:40:41;;;;;;;7.80;4.47;;;;;;;-141.23;100.00;62281.09;5099540;27;20047;-72
2023/11/30 01:43:07;;;;;;;7.10;3.83;;;;;;;-141.23;100.00;62281.09;5081799;27;20455;-72
2023/11/30 01:45:33;;;;;;;16.67;6.50;;;;;;;-141.23;100.00;62281.09;5098065;27;20054;-72
2023/11/30 01:47:59;;;;;;;11.10;4.63;;;;;;;-141.23;100.00;62281.09;5119992;27;20091;-72
2023/11/30 01:50:26;;;;;;;15.07;5.20;;;;;;;-141.23;100.00;62281.09;5119728;27;20058;-73
2023/11/30 01:52:52;;;;;;;7.77;4.30;;;;;;;-141.23;100.00;62281.09;5102528;27;20129;-72
2023/11/30 01:55:18;;;;;;;8.47;3.77;;;;;;;-141.23;100.00;62281.09;5115940;27;20191;-70
2023/11/30 01:57:44;;;;;;;6.77;3.10;;;;;;;-141.23;100.00;62281.09;5103602;27;20378;-71
2023/11/30 02:00:10;;;;;;;6.47;3.93;;;;;;;-141.23;100.00;62281.09;5103149;27;20045;-72
2023/11/30 02:02:41;;;;;;;3.58;2.22;;;;;;;-141.23;100.00;62281.09;5121406;27;20030;-72
2023/11/30 02:05:07;;;;;;;5.60;3.37;;;;;;;-141.23;100.00;62281.09;5103398;27;20042;-72
2023/11/30 02:07:33;;;;;;;4.20;3.17;;;;;;;-141.23;100.00;62281.09;5136910;27;20466;-72
2023/11/30 02:09:59;;;;;;;4.60;2.47;;;;;;;-141.23;100.00;62281.09;5103211;27;20042;-72
2023/11/30 02:12:25;;;;;;;2.30;1.53;;;;;;;-141.23;100.00;62281.09;5103246;27;20171;-72
2023/11/30 02:14:52;;;;;;;6.63;2.70;;;;;;;-141.23;100.00;62281.09;5103279;27;20076;-72
2023/11/30 02:17:19;;;;;;;2.60;2.00;;;;;;;-141.23;100.00;62281.09;5103263;27;20066;-71
2023/11/30 02:19:45;;;;;;;3.20;2.17;;;;;;;-141.23;100.00;62281.09;5103660;27;20468;-72
2023/11/30 02:22:11;;;;;;;2.40;1.77;;;;;;;-141.23;100.00;62281.09;5102840;27;20074;-72
2023/11/30 02:24:38;;;;;;;3.53;1.70;;;;;;;-141.23;100.00;62281.09;5120051;27;20355;-72
2023/11/30 02:27:04;;;;;;;1.97;1.77;;;;;;;-141.23;100.00;62281.09;5102084;27;20042;-72
2023/11/30 02:29:30;;;;;;;1.80;1.37;;;;;;;-141.23;100.00;62281.09;5102517;27;20046;-72
2023/11/30 02:31:56;;;;;;;3.83;1.90;;;;;;;-141.23;100.00;62281.09;5102772;27;20069;-72
2023/11/30 02:34:22;;;;;;;2.83;1.80;;;;;;;-141.23;100.00;62281.09;5136509;27;20467;-71
2023/11/30 02:36:48;;;;;;;2.40;1.80;;;;;;;-141.23;100.00;62281.09;5102793;27;20053;-72
2023/11/30 02:39:14;;;;;;;1.30;1.13;;;;;;;-141.23;100.00;62281.09;5102919;27;20039;-72
2023/11/30 02:41:39;;;;;;;2.70;1.40;;;;;;;-141.23;100.00;62281.09;5094480;28;20154;-73
2023/11/30 02:44:08;;;;;;;3.33;1.60;;;;;;;-141.23;100.00;62281.09;5061241;28;20047;-73
2023/11/30 02:46:36;;;;;;;3.47;2.23;;;;;;;-141.23;100.00;62281.09;5061087;28;20142;-73
2023/11/30 02:49:02;;;;;;;2.17;1.50;;;;;;;-141.23;100.00;62281.09;5044767;28;20134;-72
2023/11/30 02:51:29;;;;;;;2.87;2.00;;;;;;;-141.23;100.00;62281.09;5061207;28;20201;-73
2023/11/30 02:53:55;;;;;;;7.43;2.90;;;;;;;-141.23;100.00;62281.09;5078064;28;20039;-73
2023/11/30 02:56:21;;;;;;;4.57;1.90;;;;;;;-141.23;100.00;62281.09;5087752;28;20052;-73
2023/11/30 02:58:47;;;;;;;3.47;1.93;;;;;;;-141.23;100.00;62281.09;5038217;28;20505;-73
2023/11/30 03:01:13;;;;;;;3.43;2.07;;;;;;;-141.23;100.00;62281.09;5021109;28;20570;-71
2023/11/30 03:03:39;;;;;;;2.57;2.20;;;;;;;-141.23;100.00;62281.09;5021292;28;20041;-71
2023/11/30 03:06:11;;;;;;;1.60;1.47;;;;;;;-141.23;100.00;62281.09;5021087;28;20055;-71
2023/11/30 03:08:37;;;;;;;5.97;3.13;;;;;;;-141.23;100.00;62281.09;5037591;28;20044;-71
2023/11/30 03:11:03;;;;;;;3.27;2.13;;;;;;;-141.23;100.00;62281.09;5037060;28;20485;-71
2023/11/30 03:13:29;;;;;;;1.43;1.33;;;;;;;-141.23;100.00;62281.09;5058101;27;20059;-69
2023/11/30 03:15:55;;;;;;;2.33;1.57;;;;;;;-141.23;100.00;62281.09;5097459;27;20061;-71
2023/11/30 03:18:21;;;;;;;2.30;2.10;;;;;;;-141.23;100.00;62281.09;5064114;27;20046;-69
2023/11/30 03:20:47;;;;;;;1.07;1.07;;;;;;;-141.23;100.00;62281.09;5080378;27;20045;-71
2023/11/30 03:23:12;;;;;;;1.70;1.60;;;;;;;-141.23;100.00;62281.09;5097395;27;20039;-68
2023/11/30 03:25:41;;;;;;;2.90;2.13;;;;;;;-141.23;100.00;62281.09;5080596;27;20039;-68
2023/11/30 03:28:07;;;;;;;5.07;2.60;;;;;;;-141.23;100.00;62281.09;5094642;27;20566;-70
2023/11/30 03:30:33;;;;;;;2.30;1.63;;;;;;;-141.23;100.00;62281.09;5101728;27;20043;-67
2023/11/30 03:32:59;;;;;;;2.60;1.90;;;;;;;-141.23;100.00;62281.09;5101642;27;20535;-67
2023/11/30 03:35:25;;;;;;;3.13;2.20;;;;;;;-141.23;100.00;62281.09;5101755;27;20053;-71
2023/11/30 03:37:51;;;;;;;2.73;2.03;;;;;;;-141.23;100.00;62281.09;5118875;27;20550;-68
2023/11/30 03:40:17;;;;;;;2.73;1.87;;;;;;;-141.23;100.00;62281.09;5101265;27;20224;-72
2023/11/30 03:42:45;;;;;;;3.17;2.30;;;;;;;-141.23;100.00;62281.09;5119027;27;20050;-70
2023/11/30 03:45:11;;;;;;;3.73;1.83;;;;;;;-141.23;100.00;62281.09;5118404;27;20053;-69
2023/11/30 03:47:38;;;;;;;3.87;2.60;;;;;;;-141.23;100.00;62281.09;5118717;27;20129;-69
2023/11/30 03:50:05;;;;;;;1.70;1.30;;;;;;;-141.23;100.00;62281.09;5117304;27;20070;-70
2023/11/30 03:52:32;;;;;;;4.07;2.50;;;;;;;-141.23;100.00;62281.09;5117221;27;20042;-68
2023/11/30 03:54:59;;;;;;;0.83;0.83;;;;;;;-141.23;100.00;62281.09;5116866;27;20046;-69
2023/11/30 03:57:25;;;;;;;4.73;2.47;;;;;;;-141.23;100.00;62281.09;5099293;27;20099;-69
2023/11/30 03:59:51;;;;;;;5.63;2.83;;;;;;;-141.23;100.00;62281.09;5117058;27;20450;-70
2023/11/30 04:02:17;;;;;;;5.10;2.43;;;;;;;-141.23;100.00;62281.09;5116180;27;20478;-68
2023/11/30 04:04:43;;;;;;;2.97;2.27;;;;;;;-141.23;100.00;62281.09;5118840;27;20431;-71
2023/11/30 04:07:09;;;;;;;1.40;1.30;;;;;;;-141.23;100.00;62281.09;5100385;27;20171;-69
2023/11/30 04:09:38;;;;;;;5.17;2.87;;;;;;;-141.23;100.00;62281.09;5101699;27;20042;-69
2023/11/30 04:12:04;;;;;;;1.10;1.00;;;;;;;-141.23;100.00;62281.09;5109733;27;20062;-71
2023/11/30 04:14:31;;;;;;;5.40;3.10;;;;;;;-141.23;100.00;62281.09;5118043;27;20484;-72
2023/11/30 04:16:57;;;;;;;6.03;2.83;;;;;;;-141.23;100.00;62281.09;5100625;27;20183;-71
2023/11/30 04:19:24;;;;;;;2.70;2.30;;;;;;;-141.23;100.00;62281.09;5099663;27;20031;-71
2023/11/30 04:21:51;;;;;;;5.00;2.17;;;;;;;-141.23;100.00;62281.09;5118162;27;20428;-72
2023/11/30 04:24:19;;;;;;;3.70;2.53;;;;;;;-141.23;100.00;62281.09;5090373;28;20147;-71
2023/11/30 04:26:44;;;;;;;2.97;2.50;;;;;;;-141.23;100.00;62281.09;5042578;28;20048;-72
2023/11/30 04:29:12;;;;;;;6.77;3.30;;;;;;;-141.23;100.00;62281.09;5073328;28;20410;-73
2023/11/30 04:31:39;;;;;;;3.87;2.80;;;;;;;-141.23;100.00;62281.09;5059151;28;20047;-70
2023/11/30 04:34:05;;;;;;;3.77;2.00;;;;;;;-141.23;100.00;62281.09;5058941;28;20073;-70
2023/11/30 04:36:31;;;;;;;3.40;2.30;;;;;;;-141.23;100.00;62281.09;5058859;28;20051;-70
2023/11/30 04:38:58;;;;;;;7.67;3.27;;;;;;;-141.23;100.00;62281.09;5059234;28;20036;-70
2023/11/30 04:41:24;;;;;;;5.27;2.70;;;;;;;-141.23;100.00;62281.09;5059514;28;20063;-70
2023/11/30 04:43:52;;;;;;;7.07;3.50;;;;;;;-141.23;100.00;62281.09;5059118;28;20075;-70
2023/11/30 04:46:18;;;;;;;7.90;2.90;;;;;;;-141.23;100.00;62281.09;5092287;28;20482;-70
2023/11/30 04:48:44;;;;;;;6.43;2.87;;;;;;;-141.23;100.00;62281.09;5091583;28;20083;-69
2023/11/30 04:51:09;;;;;;;2.33;1.63;;;;;;;-141.23;100.00;62281.09;5091983;28;20082;-71
2023/11/30 04:53:36;;;;;;;5.33;3.23;;;;;;;-141.23;100.00;62281.09;5096600;28;20051;-70
2023/11/30 04:56:03;;;;;;;3.87;2.20;;;;;;;-141.23;100.00;62281.09;5096443;28;20075;-70
2023/11/30 04:58:29;;;;;;;7.63;3.70;;;;;;;-141.23;100.00;62281.09;5079945;28;20043;-70
2023/11/30 05:00:56;;;;;;;14.77;5.67;;;;;;;-141.23;100.00;62281.09;5096704;28;20418;-69
2023/11/30 05:03:21;;;;;;;11.70;4.13;;;;;;;-141.23;100.00;62281.09;5039091;28;20386;-69
2023/11/30 05:05:48;;;;;;;7.13;2.63;;;;;;;-141.23;100.00;62281.09;5020300;28;20079;-70
2023/11/30 05:08:14;;;;;;;17.67;5.90;;;;;;;-141.23;100.00;62281.09;5054838;28;20059;-69
2023/11/30 05:10:40;;;;;;;6.47;3.57;;;;;;;-141.23;100.00;62281.09;5021401;28;20613;-70
2023/11/30 05:13:07;;;;;;;2.30;1.80;;;;;;;-141.23;100.00;62281.09;5022385;28;20056;-70
2023/11/30 05:15:37;;;;;;;10.80;4.10;;;;;;;-141.23;100.00;62281.09;5056322;28;20055;-70
2023/11/30 05:18:04;;;;;;;4.23;2.97;;;;;;;-141.23;100.00;62281.09;5077109;28;20059;-69
2023/11/30 05:20:30;;;;;;;21.33;6.23;;;;;;;-141.23;100.00;62281.09;5059476;28;20043;-70
2023/11/30 05:22:56;;;;;;;11.97;4.43;;;;;;;-141.23;100.00;62281.09;5043082;28;20063;-69
2023/11/30 05:25:21;;;;;;;11.30;4.27;;;;;;;-141.23;100.00;62281.09;5042795;28;20051;-69
2023/11/30 05:27:47;;;;;;;14.90;5.13;;;;;;;-141.23;100.00;62281.09;5042803;28;20051;-69
2023/11/30 05:30:13;;;;;;;11.30;3.23;;;;;;;-141.23;100.00;62281.09;5059229;28;20059;-69
2023/11/30 05:32:39;;;;;;;12.50;3.77;;;;;;;-141.23;100.00;62281.09;5059357;28;20071;-69
2023/11/30 05:35:06;;;;;;;21.13;5.70;;;;;;;-141.23;100.00;62281.09;5089458;27;20046;-70
2023/11/30 05:37:33;;;;;;;15.13;4.97;;;;;;;3.55;100.00;97942.88;5117554;27;20150;-70
2023/11/30 05:39:59;;;;;;;18.30;5.53;;;;;;;-141.23;100.00;62281.09;5117649;27;20122;-70
2023/11/30 05:42:25;;;;;;;16.03;5.03;;;;;;;-141.23;100.00;62281.09;5117772;27;20046;-69
2023/11/30 05:44:50;;;;;;;9.77;1.97;;;;;;;-141.23;100.00;62281.09;5100457;27;20027;-70
2023/11/30 05:47:16;;;;;;;18.43;5.17;;;;;;;3.66;100.00;97962.78;5117357;27;20137;-69
2023/11/30 05:49:42;;;;;;;17.00;5.13;;;;;;;-141.23;100.00;62281.09;5100482;27;20050;-69
2023/11/30 05:52:08;;;;;;;17.63;5.20;;;;;;;3.58;100.00;97967.97;5135369;27;20091;-69
2023/11/30 05:54:33;;;;;;;21.57;4.33;;;;;;;-141.23;100.00;62281.09;5134343;27;20039;-69
2023/11/30 05:56:59;;;;;;;22.57;5.93;;;;;;;3.65;100.00;97963.75;5100480;27;20043;-69
2023/11/30 05:59:25;;;;;;;32.73;7.23;;;;;;;3.66;100.00;97960.94;5117407;27;20057;-69
2023/11/30 06:01:51;;;;;;;31.00;5.57;;;;;;;-141.23;100.00;62281.09;5117021;27;20039;-69
2023/11/30 06:04:17;;;;;;;21.97;5.93;;;;;;;-141.23;100.00;62281.09;5117011;27;20474;-69
2023/11/30 06:06:43;;;;;;;17.90;5.63;;;;;;;3.59;100.00;97977.47;5134711;27;20054;-69
2023/11/30 06:09:09;;;;;;;30.10;7.03;;;;;;;3.67;100.00;97961.78;5100053;27;20138;-69
2023/11/30 06:11:35;;;;;;;24.13;6.20;;;;;;;-141.23;100.00;62281.09;5083167;27;20471;-69
2023/11/30 06:14:02;;;;;;;19.43;6.07;;;;;;;-141.23;100.00;62281.09;5116809;27;20046;-71
2023/11/30 06:16:28;;;;;;;10.87;3.13;;;;;;;-141.23;100.00;62281.09;5134091;27;20047;-70
2023/11/30 06:18:54;;;;;;;31.83;7.07;;;;;;;-141.23;100.00;62281.09;5100020;27;20050;-69
2023/11/30 06:21:19;;;;;;;20.43;4.97;;;;;;;-141.23;100.00;62281.09;5116852;27;20076;-69
2023/11/30 06:23:45;;;;;;;28.03;6.07;;;;;;;-141.23;100.00;62281.09;5099691;27;20046;-70
2023/11/30 06:26:11;;;;;;;17.40;5.37;;;;;;;3.90;100.00;97960.28;5099734;27;20047;-69
2023/11/30 06:28:37;;;;;;;20.60;4.13;;;;;;;3.94;100.00;97969.47;5099840;27;20049;-70
2023/11/30 06:31:03;;;;;;;30.47;6.87;;;;;;;3.88;100.00;97977.97;5116509;27;20443;-71
2023/11/30 06:33:29;;;;;;;30.43;6.73;;;;;;;-141.23;100.00;62281.09;5116862;27;20126;-70
2023/11/30 06:35:55;;;;;;;31.83;6.33;;;;;;;-141.23;100.00;62281.09;5116439;27;20133;-70
2023/11/30 06:38:21;;;;;;;50.80;8.77;;;;;;;-141.23;100.00;62281.09;5099657;27;20127;-70
2023/11/30 06:40:48;;;;;;;11.83;4.60;;;;;;;3.77;100.00;97983.53;5099525;27;20072;-71
2023/11/30 06:43:15;;;;;;;45.93;7.87;;;;;;;3.85;100.00;97980.91;5099487;27;20100;-71
2023/11/30 06:45:41;;;;;;;31.70;6.93;;;;;;;3.89;100.00;97982.25;5082727;27;20043;-71
2023/11/30 06:48:06;;;;;;;28.10;5.80;;;;;;;3.88;100.00;97981.44;5099205;27;20050;-72
2023/11/30 06:50:32;;;;;;;50.53;9.23;;;;;;;3.78;100.00;97987.78;5133824;27;20501;-71
2023/11/30 06:52:58;;;;;;;24.43;6.63;;;;;;;3.82;100.00;97994.34;5116500;27;20043;-72
2023/11/30 06:55:24;;;;;;;49.30;8.83;;;;;;;-141.23;100.00;62281.09;5116575;27;20479;-72
2023/11/30 06:57:50;;;;;;;31.07;5.97;;;;;;;3.84;100.00;97993.25;5116009;27;20043;-72
2023/11/30 07:00:17;;;;;;;48.23;7.87;;;;;;;-141.23;100.00;62281.09;5133376;27;20062;-73
2023/11/30 07:02:44;;;;;;;32.73;6.90;;;;;;;-141.23;100.00;62281.09;5116393;27;20047;-73
2023/11/30 07:05:11;;;;;;;43.80;7.43;;;;;;;-141.23;100.00;62281.09;5115836;27;20104;-74
2023/11/30 07:07:37;;;;;;;33.97;5.37;;;;;;;-141.23;100.00;62281.09;5115910;27;20133;-75
2023/11/30 07:10:03;;;;;;;51.90;9.77;;;;;;;-141.23;100.00;62281.09;5116067;27;20142;-74
2023/11/30 07:12:32;;;;;;;34.23;7.97;;;;;;;-141.23;100.00;62281.09;5116517;27;20142;-74
2023/11/30 07:15:00;;;;;;;32.20;7.13;;;;;;;-141.23;100.00;62281.09;5115174;27;20126;-76
2023/11/30 07:17:26;;;;;;;35.50;7.60;;;;;;;-141.23;100.00;62281.09;5098975;27;20046;-74
2023/11/30 07:19:52;;;;;;;4.53;2.30;;;;;;;-141.23;100.00;62281.09;5115670;27;20047;-74
2023/11/30 07:22:18;;;;;;;17.87;6.40;;;;;;;-141.23;100.00;62281.09;5098845;27;20050;-78
2023/11/30 07:24:46;;;;;;;15.37;5.00;;;;;;;-141.23;100.00;62281.09;5132643;27;20039;-75
2023/11/30 07:27:19;;;;;;;3.53;2.80;;;;;;;-141.23;100.00;62281.09;5115850;27;20483;-75
2023/11/30 07:29:45;;;;;;;12.10;5.27;;;;;;;-141.23;100.00;62281.09;5098466;27;20043;-76
2023/11/30 07:32:15;;;;;;;15.07;4.93;;;;;;;-141.23;100.00;62281.09;5098595;27;20474;-74
2023/11/30 07:34:41;;;;;;;9.77;3.80;;;;;;;-141.23;100.00;62281.09;5065369;27;20469;-75
2023/11/30 07:37:07;;;;;;;5.07;2.80;;;;;;;-141.23;100.00;62281.09;5115495;27;20038;-75
2023/11/30 07:39:32;;;;;;;1.47;1.37;;;;;;;-141.23;100.00;62281.09;5098774;27;20134;-74
2023/11/30 07:42:00;;;;;;;3.43;2.17;;;;;;;-141.23;100.00;62281.09;5115394;27;20043;-74
2023/11/30 07:44:28;;;;;;;11.03;3.10;;;;;;;-141.23;100.00;62281.09;5099045;27;20035;-75
2023/11/30 07:46:54;;;;;;;5.43;2.53;;;;;;;-141.23;100.00;62281.09;5132807;27;20372;-72
2023/11/30 07:49:19;;;;;;;9.70;4.13;;;;;;;-141.23;100.00;62281.09;5098226;27;20142;-72
2023/11/30 07:51:45;;;;;;;1.93;1.67;;;;;;;-141.23;100.00;62281.09;5113974;27;20474;-74
2023/11/30 07:54:11;;;;;;;8.27;3.97;;;;;;;-141.23;100.00;62281.09;5080247;27;20506;-72
2023/11/30 07:56:37;;;;;;;5.23;2.37;;;;;;;-141.23;100.00;62281.09;5080175;27;20062;-73
2023/11/30 07:59:03;;;;;;;9.47;4.27;;;;;;;-141.23;100.00;62281.09;5097559;27;20047;-72
2023/11/30 08:01:29;;;;;;;12.60;4.67;;;;;;;-141.23;100.00;62281.09;5080216;27;20062;-72
2023/11/30 08:03:54;;;;;;;8.40;4.40;;;;;;;-141.23;100.00;62281.09;5097190;27;20120;-72
2023/11/30 08:06:21;;;;;;;4.43;2.87;;;;;;;-141.23;100.00;62281.09;5080122;28;20051;-71
2023/11/30 08:08:46;;;;;;;15.37;5.07;;;;;;;-141.23;100.00;62281.09;5096956;28;20043;-71
2023/11/30 08:11:12;;;;;;;12.90;5.30;;;;;;;-141.23;100.00;62281.09;5097078;28;20051;-71
2023/11/30 08:13:38;;;;;;;19.77;6.87;;;;;;;-141.23;100.00;62281.09;5080068;28;20040;-73
2023/11/30 08:16:05;;;;;;;4.30;2.87;;;;;;;-141.23;100.00;62281.09;5097195;28;20047;-71
2023/11/30 08:18:31;;;;;;;16.13;5.53;;;;;;;-141.23;100.00;62281.09;5096908;28;20429;-70
2023/11/30 08:21:01;;;;;;;26.67;9.50;;;;;;;-141.23;100.00;62281.09;5080155;28;20049;-71
2023/11/30 08:23:27;;;;;;;5.90;2.70;;;;;;;-141.23;100.00;62281.09;5093984;28;20049;-71
2023/11/30 08:25:53;;;;;;;12.20;5.43;;;;;;;-141.23;100.00;62281.09;5116799;27;20031;-71
2023/11/30 08:28:20;;;;;;;32.43;8.13;;;;;;;-141.23;100.00;62281.09;5118896;27;20070;-70
2023/11/30 08:30:45;;;;;;;3.67;2.63;;;;;;;-141.23;100.00;62281.09;5118723;27;20047;-71
2023/11/30 08:33:12;;;;;;;21.63;7.03;;;;;;;-141.23;100.00;62281.09;5118650;27;20043;-71
2023/11/30 08:35:39;;;;;;;25.00;8.20;;;;;;;-141.23;100.00;62281.09;5119181;27;20057;-72
2023/11/30 08:38:05;;;;;;;31.33;9.53;;;;;;;-141.23;100.00;62281.09;5119006;27;20043;-70
2023/11/30 08:40:31;;;;;;;46.33;10.47;;;;;;;-141.23;100.00;62281.09;5101824;27;20483;-71
2023/11/30 08:42:57;;;;;;;28.37;7.93;;;;;;;-141.23;100.00;62281.09;5084689;27;20043;-72
2023/11/30 08:45:23;;;;;;;22.47;6.20;;;;;;;-141.23;100.00;62281.09;5118034;27;20042;-72
2023/11/30 08:47:49;;;;;;;29.83;8.47;;;;;;;-141.23;100.00;62281.09;5118389;27;20043;-70
2023/11/30 08:50:18;;;;;;;23.93;8.80;;;;;;;-141.23;100.00;62281.09;5118577;27;20043;-72
2023/11/30 08:52:44;;;;;;;30.23;8.90;;;;;;;-141.23;100.00;62281.09;5118331;27;20108;-70
2023/11/30 08:55:11;;;;;;;27.33;8.07;;;;;;;-141.23;100.00;62281.09;5097008;28;20081;-73
2023/11/30 08:57:39;;;;;;;24.40;8.53;;;;;;;-141.23;100.00;62281.09;5036480;28;20463;-71
2023/11/30 09:00:11;;;;;;;4.83;2.60;;;;;;;-141.23;100.00;62281.09;5019890;28;20401;-71
2023/11/30 09:02:38;;;;;;;12.03;5.00;;;;;;;-141.23;100.00;62281.09;5003073;28;20045;-71
2023/11/30 09:05:05;;;;;;;35.40;10.60;;;;;;;-141.23;100.00;62281.09;5002706;28;20154;-71
2023/11/30 09:07:31;;;;;;;21.80;7.23;;;;;;;-141.23;100.00;62281.09;5036039;28;20075;-71
2023/11/30 09:10:01;;;;;;;22.80;6.93;;;;;;;-141.23;100.00;62281.09;5018876;28;20060;-71
2023/11/30 09:12:28;;;;;;;17.75;6.35;;;;;;;-141.23;100.00;62281.09;5035874;28;20049;-71
2023/11/30 09:14:54;;;;;;;20.63;7.33;;;;;;;-141.23;100.00;62281.09;5036394;28;20160;-70
2023/11/30 09:17:21;;;;;;;14.60;4.83;;;;;;;-141.23;100.00;62281.09;5019781;28;20045;-71
2023/11/30 09:19:47;;;;;;;4.27;3.33;;;;;;;-141.23;100.00;62281.09;5019847;28;20156;-71
2023/11/30 09:22:13;;;;;;;2.93;1.13;;;;;;;-141.23;100.00;62281.09;5019716;28;20068;-71
2023/11/30 09:24:41;;;;;;;3.50;3.20;;;;;;;-141.23;100.00;62281.09;5036434;28;20048;-71
2023/11/30 09:27:08;;;;;;;6.73;3.23;;;;;;;-141.23;100.00;62281.09;5090104;28;20075;-71
2023/11/30 09:29:37;;;;;;;4.17;2.30;;;;;;;-141.23;100.00;62281.09;5042877;28;20506;-71
2023/11/30 09:32:05;;;;;;;8.73;3.67;;;;;;;-141.23;100.00;62281.09;5042749;28;20573;-71
2023/11/30 09:34:31;;;;;;;3.73;2.73;;;;;;;-141.23;100.00;62281.09;5043016;28;20542;-70
2023/11/30 09:36:58;;;;;;;3.40;1.27;;;;;;;-141.23;100.00;62281.09;5041957;28;20055;-70
2023/11/30 09:39:25;;;;;;;2.50;2.30;;;;;;;-141.23;100.00;62281.09;5075732;28;20135;-71
2023/11/30 09:41:52;;;;;;;3.60;3.00;;;;;;;-141.23;100.00;62281.09;5058872;28;20482;-72
2023/11/30 09:44:27;;;;;;;6.63;3.23;;;;;;;-141.23;100.00;62281.09;5059083;28;20071;-77
2023/11/30 09:46:54;;;;;;;1.40;1.30;;;;;;;-141.23;100.00;62281.09;5047231;27;20404;-81
2023/11/30 09:49:20;;;;;;;2.00;1.73;;;;;;;-141.23;100.00;62281.09;5100761;27;20031;-74
2023/11/30 09:51:53;;;;;;;1.73;1.37;;;;;;;-141.23;100.00;62281.09;5100352;27;20046;-74
2023/11/30 09:54:22;;;;;;;5.30;2.33;;;;;;;-141.23;100.00;62281.09;5118175;27;20134;-72
2023/11/30 09:56:48;;;;;;;1.93;1.77;;;;;;;-141.23;100.00;62281.09;5102799;27;20039;-75
2023/11/30 09:59:15;;;;;;;5.67;3.37;;;;;;;-141.23;100.00;62281.09;5118159;27;20039;-71
2023/11/30 10:01:43;;;;;;;2.83;2.10;;;;;;;-141.23;100.00;62281.09;5134965;27;20378;-71
2023/11/30 10:04:16;;;;;;;7.17;2.57;;;;;;;-141.23;100.00;62281.09;5117853;27;20063;-72
2023/11/30 10:06:46;;;;;;;2.40;1.83;;;;;;;-141.23;100.00;62281.09;5130268;27;20057;-71
2023/11/30 10:09:13;;;;;;;1.00;1.00;;;;;;;-141.23;100.00;62281.09;5100078;27;20363;-72
2023/11/30 10:11:46;;;;;;;12.03;4.40;;;;;;;-141.23;100.00;62281.09;5097233;27;20495;-74
2023/11/30 10:14:13;;;;;;;6.60;2.70;;;;;;;-141.23;100.00;62281.09;5098587;27;20051;-73
2023/11/30 10:16:39;;;;;;;1.03;1.03;;;;;;;-141.23;100.00;62281.09;5095852;27;20646;-71
2023/11/30 10:19:06;;;;;;;6.30;3.00;;;;;;;-141.23;100.00;62281.09;5080032;27;20039;-76
2023/11/30 10:21:32;;;;;;;8.77;3.07;;;;;;;-141.23;100.00;62281.09;5114154;27;20054;-72
2023/11/30 10:23:59;;;;;;;11.43;4.00;;;;;;;-141.23;100.00;62281.09;5053357;28;20063;-72
2023/11/30 10:26:25;;;;;;;17.73;5.77;;;;;;;-141.23;100.00;62281.09;5053085;28;20052;-70
2023/11/30 10:28:53;;;;;;;5.43;3.17;;;;;;;-141.23;100.00;62281.09;5053583;28;20099;-71
2023/11/30 10:31:21;;;;;;;8.73;3.80;;;;;;;-141.23;100.00;62281.09;5019913;28;20519;-71
2023/11/30 10:33:55;;;;;;;9.47;4.27;;;;;;;-141.23;100.00;62281.09;4995887;28;20514;-70
2023/11/30 10:36:28;;;;;;;9.27;4.03;;;;;;;-141.23;100.00;62281.09;4959841;28;20053;-69
2023/11/30 10:39:22;;;;;;;4.30;2.37;;;;;;;-141.23;100.00;62281.09;5004929;28;20057;-68
2023/11/30 10:41:52;;;;;;;5.77;3.20;;;;;;;-141.23;100.00;62281.09;4992456;28;20161;-69
2023/11/30 10:44:31;;;;;;;11.53;2.80;;;;;;;-141.23;100.00;62281.09;4992657;28;20054;-68
2023/11/30 10:47:02;;;;;;;3.30;2.13;;;;;;;-141.23;100.00;62281.09;4994913;28;20046;-68
2023/11/30 10:49:39;;;;;;;4.47;2.50;;;;;;;-141.23;100.00;62281.09;4970059;28;20126;-69
2023/11/30 10:52:10;;;;;;;3.80;2.47;;;;;;;-141.23;100.00;62281.09;4940355;28;20102;-69
2023/11/30 10:55:01;;;;;;;1.17;1.17;;;;;;;-141.23;100.00;62281.09;4965966;28;20494;-70
2023/11/30 10:57:41;;;;;;;1.47;1.37;;;;;;;-141.23;100.00;62281.09;4960983;28;20041;-70
2023/11/30 11:00:16;;;;;;;3.33;2.73;;;;;;;-141.23;100.00;62281.09;4954542;28;20109;-70
2023/11/30 11:03:03;;;;;;;2.03;1.50;;;;;;;-141.23;100.00;62281.09;4917249;29;20503;-71
2023/11/30 11:05:30;;;;;;;2.43;2.23;;;;;;;-141.23;100.00;62281.09;4997582;28;20092;-71